createdAt,value
2018-05-21T00:00:07.514Z,90.05
2018-05-21T00:01:07.437Z,91.01
2018-05-21T00:02:07.384Z,90.72
2018-05-21T00:03:07.314Z,90.72
2018-05-21T00:04:07.234Z,90.82
2018-05-21T00:05:07.156Z,90.72
2018-05-21T00:06:07.092Z,91.87
2018-05-21T00:07:07.016Z,92.25
2018-05-21T00:08:06.944Z,92.21
2018-05-21T00:09:06.872Z,92.02
2018-05-21T00:10:06.809Z,92.35
2018-05-21T00:11:06.719Z,92.59
2018-05-21T00:12:06.659Z,92.92
2018-05-21T00:13:06.579Z,92.88
2018-05-21T00:14:06.509Z,92.21
2018-05-21T00:15:06.442Z,91.92
2018-05-21T00:16:06.372Z,92.02
2018-05-21T00:17:06.299Z,92.40
2018-05-21T00:18:06.221Z,92.40
2018-05-21T00:19:06.155Z,91.16
2018-05-21T00:20:06.082Z,90.58
2018-05-21T00:21:06.012Z,91.25
2018-05-21T00:22:05.938Z,90.58
2018-05-21T00:23:05.904Z,91.06
2018-05-21T00:24:05.792Z,91.25
2018-05-21T00:25:05.728Z,90.77
2018-05-21T00:26:05.651Z,90.20
2018-05-21T00:27:05.577Z,90.96
2018-05-21T00:28:05.522Z,92.40
2018-05-21T00:29:05.434Z,91.44
2018-05-21T00:30:05.361Z,92.21
2018-05-21T00:31:05.381Z,92.02
2018-05-21T00:32:05.221Z,91.92
2018-05-21T00:33:05.149Z,92.59
2018-05-21T00:34:05.073Z,92.78
2018-05-21T00:35:05.003Z,92.78
2018-05-21T00:36:04.928Z,92.88
2018-05-21T00:37:04.857Z,92.21
2018-05-21T00:38:04.793Z,91.83
2018-05-21T00:39:04.714Z,92.02
2018-05-21T00:40:04.648Z,92.59
2018-05-21T00:41:04.572Z,92.21
2018-05-21T00:42:04.493Z,92.21
2018-05-21T00:43:04.432Z,91.83
2018-05-21T00:44:04.353Z,91.35
2018-05-21T00:45:04.285Z,90.67
2018-05-21T00:46:04.215Z,90.77
2018-05-21T00:47:04.140Z,90.87
2018-05-21T00:48:04.065Z,90.77
2018-05-21T00:49:03.996Z,90.87
2018-05-21T00:50:03.923Z,91.35
2018-05-21T00:51:03.847Z,92.21
2018-05-21T00:52:03.781Z,92.49
2018-05-21T00:53:03.707Z,92.49
2018-05-21T00:54:03.633Z,91.92
2018-05-21T00:55:03.563Z,91.16
2018-05-21T00:56:03.496Z,91.35
2018-05-21T00:57:03.421Z,91.44
2018-05-21T00:58:03.360Z,91.25
2018-05-21T00:59:03.276Z,92.11
2018-05-21T01:00:03.204Z,92.21
2018-05-21T01:01:03.164Z,92.40
2018-05-21T01:02:03.061Z,92.11
2018-05-21T01:03:03.000Z,91.92
2018-05-21T01:04:02.911Z,91.83
2018-05-21T01:05:02.850Z,92.88
2018-05-21T01:06:02.771Z,92.88
2018-05-21T01:07:02.709Z,92.88
2018-05-21T01:08:02.633Z,92.59
2018-05-21T01:09:02.548Z,92.11
2018-05-21T01:10:02.498Z,91.53
2018-05-21T01:11:02.415Z,91.25
2018-05-21T01:12:02.337Z,91.53
2018-05-21T01:13:02.304Z,90.96
2018-05-21T01:14:02.192Z,90.77
2018-05-21T01:15:02.124Z,90.87
2018-05-21T01:16:02.058Z,91.25
2018-05-21T01:17:01.980Z,91.35
2018-05-21T01:18:01.908Z,92.02
2018-05-21T01:19:01.835Z,91.92
2018-05-21T01:20:01.781Z,92.02
2018-05-21T01:21:01.711Z,92.02
2018-05-21T01:22:01.628Z,92.21
2018-05-21T01:23:01.551Z,91.63
2018-05-21T01:24:01.475Z,91.35
2018-05-21T01:25:01.407Z,91.25
2018-05-21T01:26:01.330Z,90.67
2018-05-21T01:27:01.262Z,90.77
2018-05-21T01:28:01.188Z,91.53
2018-05-21T01:29:01.116Z,92.11
2018-05-21T01:30:01.042Z,91.73
2018-05-21T01:31:00.974Z,91.16
2018-05-21T01:32:00.904Z,90.77
2018-05-21T01:33:00.829Z,90.24
2018-05-21T01:34:00.752Z,90.15
2018-05-21T01:35:00.686Z,90.15
2018-05-21T01:36:00.617Z,89.62
2018-05-21T01:37:00.539Z,89.15
2018-05-21T01:38:00.469Z,89.43
2018-05-21T01:39:00.396Z,89.15
2018-05-21T01:40:00.327Z,89.05
2018-05-21T01:41:00.269Z,89.81
2018-05-21T01:42:00.183Z,89.62
2018-05-21T01:43:00.109Z,88.57
2018-05-21T01:44:00.036Z,88.57
2018-05-21T01:44:59.974Z,87.71
2018-05-21T01:45:59.894Z,88.19
2018-05-21T01:46:59.820Z,87.33
2018-05-21T01:47:59.748Z,86.57
2018-05-21T01:48:59.693Z,86.66
2018-05-21T01:49:59.603Z,87.23
2018-05-21T01:50:59.530Z,86.37
2018-05-21T01:51:59.459Z,86.94
2018-05-21T01:52:59.397Z,86.94
2018-05-21T01:53:59.316Z,86.76
2018-05-21T01:54:59.260Z,86.47
2018-05-21T01:55:59.184Z,86.66
2018-05-21T01:56:59.105Z,85.03
2018-05-21T01:57:59.878Z,84.46
2018-05-21T01:58:58.960Z,84.27
2018-05-21T01:59:58.889Z,84.94
2018-05-21T02:00:58.813Z,84.84
2018-05-21T02:01:58.746Z,84.94
2018-05-21T02:02:58.671Z,84.94
2018-05-21T02:03:58.600Z,85.41
2018-05-21T02:04:58.546Z,85.13
2018-05-21T02:05:58.456Z,86.18
2018-05-21T02:06:58.390Z,87.04
2018-05-21T02:07:58.314Z,86.94
2018-05-21T02:08:58.241Z,87.90
2018-05-21T02:09:58.167Z,88.38
2018-05-21T02:10:58.105Z,88.67
2018-05-21T02:11:58.025Z,88.38
2018-05-21T02:12:57.953Z,88.57
2018-05-21T02:13:57.873Z,89.05
2018-05-21T02:14:57.811Z,88.95
2018-05-21T02:15:57.780Z,89.43
2018-05-21T02:16:57.696Z,89.05
2018-05-21T02:17:57.619Z,89.62
2018-05-21T02:18:57.563Z,90.10
2018-05-21T02:19:57.541Z,90.30
2018-05-21T02:20:57.376Z,90.92
2018-05-21T02:21:57.310Z,90.96
2018-05-21T02:22:57.228Z,92.02
2018-05-21T02:23:57.163Z,91.83
2018-05-21T02:24:57.103Z,92.25
2018-05-21T02:25:57.015Z,92.16
2018-05-21T02:26:57.059Z,92.74
2018-05-21T02:27:56.872Z,92.83
2018-05-21T02:28:56.805Z,92.64
2018-05-21T02:29:56.728Z,93.26
2018-05-21T02:30:56.661Z,93.50
2018-05-21T02:31:56.582Z,93.64
2018-05-21T02:32:56.518Z,93.31
2018-05-21T02:33:56.441Z,93.02
2018-05-21T02:34:56.368Z,93.16
2018-05-21T02:35:56.293Z,93.31
2018-05-21T02:36:56.292Z,93.26
2018-05-21T02:37:56.156Z,92.74
2018-05-21T02:38:56.078Z,92.74
2018-05-21T02:39:56.008Z,93.12
2018-05-21T02:40:55.934Z,92.83
2018-05-21T02:41:55.866Z,93.02
2018-05-21T02:42:55.794Z,93.31
2018-05-21T02:43:55.719Z,93.02
2018-05-21T02:44:55.647Z,93.12
2018-05-21T02:45:55.568Z,92.83
2018-05-21T02:46:55.510Z,92.54
2018-05-21T02:47:55.430Z,92.93
2018-05-21T02:48:55.369Z,92.74
2018-05-21T02:49:55.286Z,92.74
2018-05-21T02:50:55.229Z,93.21
2018-05-21T02:51:55.141Z,93.31
2018-05-21T02:52:55.079Z,93.21
2018-05-21T02:53:55.002Z,93.12
2018-05-21T02:54:54.931Z,92.54
2018-05-21T02:55:54.853Z,92.45
2018-05-21T02:56:54.781Z,93.21
2018-05-21T02:57:54.705Z,94.36
2018-05-21T02:58:54.644Z,94.26
2018-05-21T02:59:54.569Z,94.26
2018-05-21T03:00:54.492Z,94.07
2018-05-21T03:01:54.420Z,93.79
2018-05-21T03:02:54.345Z,94.46
2018-05-21T03:03:54.281Z,93.69
2018-05-21T03:04:54.212Z,93.40
2018-05-21T03:05:54.146Z,93.79
2018-05-21T03:06:54.062Z,93.50
2018-05-21T03:07:53.997Z,93.88
2018-05-21T03:08:53.922Z,93.79
2018-05-21T03:09:53.844Z,93.79
2018-05-21T03:10:53.793Z,94.17
2018-05-21T03:11:53.704Z,93.79
2018-05-21T03:12:53.630Z,93.69
2018-05-21T03:13:53.558Z,93.02
2018-05-21T03:14:53.503Z,93.02
2018-05-21T03:15:53.411Z,93.40
2018-05-21T03:16:53.341Z,93.21
2018-05-21T03:17:53.267Z,93.31
2018-05-21T03:18:53.185Z,92.45
2018-05-21T03:19:53.114Z,92.64
2018-05-21T03:20:53.051Z,92.54
2018-05-21T03:21:52.979Z,91.78
2018-05-21T03:22:52.895Z,91.11
2018-05-21T03:23:52.825Z,92.25
2018-05-21T03:24:52.763Z,92.93
2018-05-21T03:25:52.687Z,91.68
2018-05-21T03:26:52.622Z,91.88
2018-05-21T03:27:52.571Z,91.97
2018-05-21T03:28:52.474Z,92.93
2018-05-21T03:29:52.410Z,93.02
2018-05-21T03:30:52.326Z,92.25
2018-05-21T03:31:52.259Z,92.35
2018-05-21T03:32:52.183Z,92.93
2018-05-21T03:33:52.109Z,92.74
2018-05-21T03:34:52.040Z,92.07
2018-05-21T03:35:51.962Z,91.78
2018-05-21T03:36:51.890Z,91.68
2018-05-21T03:37:51.860Z,91.20
2018-05-21T03:38:51.740Z,91.97
2018-05-21T03:39:51.673Z,91.20
2018-05-21T03:40:51.601Z,91.02
2018-05-21T03:41:51.531Z,90.92
2018-05-21T03:42:51.454Z,91.88
2018-05-21T03:43:51.386Z,91.20
2018-05-21T03:44:51.313Z,91.88
2018-05-21T03:45:51.236Z,91.11
2018-05-21T03:46:51.168Z,90.73
2018-05-21T03:47:51.088Z,90.63
2018-05-21T03:48:51.025Z,88.62
2018-05-21T03:49:50.952Z,86.33
2018-05-21T03:50:50.882Z,84.89
2018-05-21T03:51:50.806Z,85.94
2018-05-21T03:52:50.739Z,84.99
2018-05-21T03:53:50.660Z,84.99
2018-05-21T03:54:50.617Z,85.38
2018-05-21T03:55:50.518Z,84.99
2018-05-21T03:56:50.444Z,84.52
2018-05-21T03:57:50.372Z,82.70
2018-05-21T03:58:50.302Z,82.51
2018-05-21T03:59:50.241Z,82.60
2018-05-21T04:00:50.154Z,83.08
2018-05-21T04:01:50.099Z,82.98
2018-05-21T04:02:50.011Z,83.75
2018-05-21T04:03:49.939Z,83.75
2018-05-21T04:04:49.871Z,82.51
2018-05-21T04:05:49.797Z,82.60
2018-05-21T04:06:49.723Z,82.22
2018-05-21T04:07:49.651Z,82.12
2018-05-21T04:08:49.579Z,82.41
2018-05-21T04:09:49.501Z,82.41
2018-05-21T04:10:49.460Z,82.79
2018-05-21T04:11:49.370Z,83.46
2018-05-21T04:12:49.305Z,83.75
2018-05-21T04:13:49.216Z,84.99
2018-05-21T04:14:49.149Z,84.42
2018-05-21T04:15:49.073Z,84.42
2018-05-21T04:16:49.000Z,83.08
2018-05-21T04:17:48.931Z,83.17
2018-05-21T04:18:48.937Z,82.22
2018-05-21T04:19:48.789Z,82.83
2018-05-21T04:20:48.712Z,79.06
2018-05-21T04:21:48.640Z,78.91
2018-05-21T04:22:48.569Z,77.95
2018-05-21T04:23:48.495Z,78.87
2018-05-21T04:24:48.421Z,76.81
2018-05-21T04:25:48.352Z,76.33
2018-05-21T04:26:48.276Z,74.41
2018-05-21T04:27:48.201Z,75.27
2018-05-21T04:28:48.137Z,75.85
2018-05-21T04:29:48.061Z,75.56
2018-05-21T04:30:47.996Z,75.09
2018-05-21T04:31:47.918Z,76.14
2018-05-21T04:32:47.856Z,77.67
2018-05-21T04:33:47.772Z,77.86
2018-05-21T04:34:47.702Z,78.63
2018-05-21T04:35:47.629Z,79.58
2018-05-21T04:36:47.558Z,78.34
2018-05-21T04:37:47.486Z,75.85
2018-05-21T04:38:47.416Z,74.61
2018-05-21T04:39:47.355Z,75.51
2018-05-21T04:40:47.268Z,75.98
2018-05-21T04:41:47.205Z,75.31
2018-05-21T04:42:47.122Z,75.12
2018-05-21T04:43:47.053Z,75.12
2018-05-21T04:44:46.979Z,76.94
2018-05-21T04:45:46.908Z,76.18
2018-05-21T04:46:46.841Z,76.84
2018-05-21T04:47:46.763Z,77.04
2018-05-21T04:48:46.699Z,76.27
2018-05-21T04:49:46.625Z,75.66
2018-05-21T04:50:46.553Z,73.50
2018-05-21T04:51:46.562Z,71.01
2018-05-21T04:52:46.406Z,71.58
2018-05-21T04:53:46.356Z,74.55
2018-05-21T04:54:46.267Z,76.08
2018-05-21T04:55:46.190Z,74.93
2018-05-21T04:56:46.116Z,75.12
2018-05-21T04:57:46.048Z,73.11
2018-05-21T04:58:45.969Z,70.53
2018-05-21T04:59:45.903Z,70.81
2018-05-21T05:00:45.829Z,70.62
2018-05-21T05:01:45.759Z,70.91
2018-05-21T05:02:45.686Z,71.01
2018-05-21T05:03:45.619Z,71.48
2018-05-21T05:04:45.544Z,71.39
2018-05-21T05:05:45.468Z,71.11
2018-05-21T05:06:45.397Z,70.81
2018-05-21T05:07:45.325Z,70.91
2018-05-21T05:08:45.263Z,69.67
2018-05-21T05:09:45.212Z,69.86
2018-05-21T05:10:45.140Z,68.80
2018-05-21T05:11:45.041Z,69.09
2018-05-21T05:12:44.970Z,68.62
2018-05-21T05:13:44.896Z,68.04
2018-05-21T05:14:44.829Z,67.94
2018-05-21T05:15:44.747Z,68.23
2018-05-21T05:16:44.682Z,68.33
2018-05-21T05:17:44.615Z,68.13
2018-05-21T05:18:44.534Z,68.04
2018-05-21T05:19:44.471Z,67.66
2018-05-21T05:20:44.411Z,68.04
2018-05-21T05:21:44.325Z,66.74
2018-05-21T05:22:44.248Z,66.89
2018-05-21T05:23:44.175Z,66.74
2018-05-21T05:24:44.111Z,66.35
2018-05-21T05:25:44.044Z,66.64
2018-05-21T05:26:44.032Z,66.74
2018-05-21T05:27:43.888Z,67.79
2018-05-21T05:28:43.829Z,67.11
2018-05-21T05:29:43.748Z,68.27
2018-05-21T05:30:43.686Z,67.98
2018-05-21T05:31:43.603Z,68.17
2018-05-21T05:32:43.536Z,66.83
2018-05-21T05:33:43.452Z,67.50
2018-05-21T05:34:43.389Z,66.45
2018-05-21T05:35:43.314Z,66.06
2018-05-21T05:36:43.255Z,65.97
2018-05-21T05:37:43.170Z,66.06
2018-05-21T05:38:43.104Z,66.54
2018-05-21T05:39:43.022Z,65.49
2018-05-21T05:40:42.965Z,65.78
2018-05-21T05:41:42.881Z,66.25
2018-05-21T05:42:42.808Z,65.58
2018-05-21T05:43:42.744Z,65.39
2018-05-21T05:44:42.682Z,65.78
2018-05-21T05:45:42.599Z,64.63
2018-05-21T05:46:42.528Z,64.25
2018-05-21T05:47:42.451Z,64.95
2018-05-21T05:48:42.422Z,65.97
2018-05-21T05:49:42.316Z,64.37
2018-05-21T05:50:42.238Z,64.56
2018-05-21T05:51:42.173Z,64.47
2018-05-21T05:52:42.183Z,63.89
2018-05-21T05:53:42.035Z,64.12
2018-05-21T05:54:41.954Z,62.77
2018-05-21T05:55:41.885Z,62.87
2018-05-21T05:56:41.812Z,63.06
2018-05-21T05:57:41.737Z,63.35
2018-05-21T05:58:41.668Z,61.63
2018-05-21T05:59:41.599Z,63.06
2018-05-21T06:00:41.525Z,62.13
2018-05-21T06:01:41.454Z,61.56
2018-05-21T06:02:41.384Z,61.27
2018-05-21T06:03:41.392Z,60.99
2018-05-21T06:04:41.238Z,61.94
2018-05-21T06:05:41.166Z,61.66
2018-05-21T06:06:41.132Z,61.94
2018-05-21T06:07:41.050Z,61.21
2018-05-21T06:08:41.019Z,61.66
2018-05-21T06:09:40.883Z,60.60
2018-05-21T06:10:40.811Z,60.60
2018-05-21T06:11:40.742Z,60.70
2018-05-21T06:12:40.669Z,61.08
2018-05-21T06:13:40.652Z,60.89
2018-05-21T06:14:40.528Z,61.66
2018-05-21T06:15:40.453Z,61.75
2018-05-21T06:16:40.394Z,61.46
2018-05-21T06:17:40.314Z,62.16
2018-05-21T06:18:40.246Z,61.75
2018-05-21T06:19:40.206Z,61.98
2018-05-21T06:20:40.111Z,61.69
2018-05-21T06:21:40.043Z,61.59
2018-05-21T06:22:39.969Z,61.30
2018-05-21T06:23:39.886Z,61.11
2018-05-21T06:24:39.818Z,61.98
2018-05-21T06:25:39.751Z,61.11
2018-05-21T06:26:39.687Z,60.53
2018-05-21T06:27:39.611Z,61.33
2018-05-21T06:28:39.539Z,61.14
2018-05-21T06:29:39.469Z,60.28
2018-05-21T06:30:39.406Z,59.70
2018-05-21T06:31:39.329Z,59.80
2018-05-21T06:32:39.257Z,60.18
2018-05-21T06:33:39.188Z,59.70
2018-05-21T06:34:39.222Z,59.80
2018-05-21T06:35:39.043Z,59.41
2018-05-21T06:36:39.014Z,59.32
2018-05-21T06:37:38.907Z,58.48
2018-05-21T06:38:38.839Z,59.16
2018-05-21T06:39:38.767Z,59.34
2018-05-21T06:40:38.693Z,59.06
2018-05-21T06:41:38.631Z,58.10
2018-05-21T06:42:38.556Z,58.10
2018-05-21T06:43:38.480Z,58.48
2018-05-21T06:44:38.416Z,58.77
2018-05-21T06:45:38.339Z,58.48
2018-05-21T06:46:38.273Z,58.48
2018-05-21T06:47:38.273Z,57.93
2018-05-21T06:48:38.131Z,58.70
2018-05-21T06:49:38.059Z,57.17
2018-05-21T06:50:37.993Z,57.45
2018-05-21T06:51:37.926Z,57.36
2018-05-21T06:52:37.852Z,56.98
2018-05-21T06:53:37.778Z,56.49
2018-05-21T06:54:37.711Z,55.63
2018-05-21T06:55:37.644Z,56.11
2018-05-21T06:56:37.585Z,56.23
2018-05-21T06:57:37.502Z,55.66
2018-05-21T06:58:37.438Z,56.14
2018-05-21T06:59:37.361Z,55.76
2018-05-21T07:00:37.295Z,55.18
2018-05-21T07:01:37.219Z,55.18
2018-05-21T07:02:37.150Z,55.46
2018-05-21T07:03:37.075Z,55.27
2018-05-21T07:04:37.015Z,54.69
2018-05-21T07:05:36.939Z,54.99
2018-05-21T07:06:36.869Z,54.89
2018-05-21T07:07:36.807Z,55.76
2018-05-21T07:08:36.727Z,54.79
2018-05-21T07:09:36.659Z,54.79
2018-05-21T07:10:36.595Z,54.50
2018-05-21T07:11:36.527Z,54.69
2018-05-21T07:12:36.457Z,54.69
2018-05-21T07:13:36.387Z,54.63
2018-05-21T07:14:36.312Z,54.72
2018-05-21T07:15:36.241Z,54.72
2018-05-21T07:16:36.182Z,54.14
2018-05-21T07:17:36.101Z,53.76
2018-05-21T07:18:36.034Z,54.72
2018-05-21T07:19:35.967Z,53.96
2018-05-21T07:20:35.901Z,54.14
2018-05-21T07:21:35.821Z,54.82
2018-05-21T07:22:35.757Z,54.53
2018-05-21T07:23:35.687Z,53.50
2018-05-21T07:24:35.621Z,54.17
2018-05-21T07:25:35.548Z,53.88
2018-05-21T07:26:35.483Z,53.59
2018-05-21T07:27:35.406Z,53.78
2018-05-21T07:28:35.348Z,53.21
2018-05-21T07:29:35.270Z,53.50
2018-05-21T07:30:35.206Z,53.11
2018-05-21T07:31:35.245Z,53.02
2018-05-21T07:32:35.065Z,53.40
2018-05-21T07:33:34.995Z,53.31
2018-05-21T07:34:34.929Z,53.21
2018-05-21T07:35:34.855Z,53.59
2018-05-21T07:36:34.794Z,53.21
2018-05-21T07:37:34.723Z,53.59
2018-05-21T07:38:34.649Z,53.40
2018-05-21T07:39:34.582Z,53.50
2018-05-21T07:40:34.511Z,53.40
2018-05-21T07:41:34.444Z,53.50
2018-05-21T07:42:34.375Z,53.43
2018-05-21T07:43:34.306Z,53.50
2018-05-21T07:44:34.238Z,53.62
2018-05-21T07:45:34.163Z,52.47
2018-05-21T07:46:34.101Z,52.75
2018-05-21T07:47:34.028Z,52.66
2018-05-21T07:48:33.962Z,52.47
2018-05-21T07:49:33.895Z,52.47
2018-05-21T07:50:33.819Z,52.27
2018-05-21T07:51:33.780Z,52.30
2018-05-21T07:52:33.681Z,52.69
2018-05-21T07:53:33.614Z,52.66
2018-05-21T07:54:33.547Z,52.75
2018-05-21T07:55:33.478Z,53.55
2018-05-21T07:56:33.404Z,52.78
2018-05-21T07:57:33.338Z,52.40
2018-05-21T07:58:33.270Z,52.59
2018-05-21T07:59:33.204Z,52.40
2018-05-21T08:00:33.133Z,52.40
2018-05-21T08:01:33.064Z,52.20
2018-05-21T08:02:32.996Z,52.59
2018-05-21T08:03:32.930Z,51.92
2018-05-21T08:04:32.860Z,51.53
2018-05-21T08:05:32.791Z,51.72
2018-05-21T08:06:32.720Z,51.62
2018-05-21T08:07:32.654Z,51.62
2018-05-21T08:08:32.576Z,50.95
2018-05-21T08:09:32.521Z,51.34
2018-05-21T08:10:32.447Z,52.20
2018-05-21T08:11:32.377Z,51.92
2018-05-21T08:12:32.350Z,51.24
2018-05-21T08:13:32.243Z,51.65
2018-05-21T08:14:32.218Z,51.24
2018-05-21T08:15:32.109Z,51.26
2018-05-21T08:16:32.039Z,51.65
2018-05-21T08:17:31.975Z,51.65
2018-05-21T08:18:31.902Z,51.65
2018-05-21T08:19:31.832Z,51.65
2018-05-21T08:20:31.764Z,51.94
2018-05-21T08:21:31.703Z,51.20
2018-05-21T08:22:31.625Z,50.81
2018-05-21T08:23:31.553Z,50.32
2018-05-21T08:24:31.495Z,49.75
2018-05-21T08:25:31.423Z,50.52
2018-05-21T08:26:31.364Z,50.52
2018-05-21T08:27:31.279Z,49.75
2018-05-21T08:28:31.225Z,50.04
2018-05-21T08:29:31.144Z,49.39
2018-05-21T08:30:31.085Z,48.52
2018-05-21T08:31:31.024Z,48.61
2018-05-21T08:32:30.957Z,48.71
2018-05-21T08:33:30.877Z,47.65
2018-05-21T08:34:30.813Z,47.75
2018-05-21T08:35:30.749Z,47.65
2018-05-21T08:36:30.674Z,47.07
2018-05-21T08:37:30.607Z,47.17
2018-05-21T08:38:30.543Z,47.09
2018-05-21T08:39:30.473Z,46.01
2018-05-21T08:40:30.404Z,46.23
2018-05-21T08:41:30.342Z,46.71
2018-05-21T08:42:30.267Z,47.09
2018-05-21T08:43:30.208Z,46.61
2018-05-21T08:44:30.135Z,46.73
2018-05-21T08:45:30.070Z,46.15
2018-05-21T08:46:30.000Z,46.25
2018-05-21T08:47:29.936Z,45.28
2018-05-21T08:48:29.881Z,45.07
2018-05-21T08:49:29.797Z,45.75
2018-05-21T08:50:29.730Z,45.26
2018-05-21T08:51:29.661Z,44.68
2018-05-21T08:52:29.601Z,45.17
2018-05-21T08:53:29.531Z,45.07
2018-05-21T08:54:29.464Z,44.78
2018-05-21T08:55:29.400Z,45.48
2018-05-21T08:56:29.387Z,45.18
2018-05-21T08:57:29.263Z,44.12
2018-05-21T08:58:29.195Z,43.93
2018-05-21T08:59:29.142Z,44.32
2018-05-21T09:00:29.069Z,45.38
2018-05-21T09:01:28.998Z,45.09
2018-05-21T09:02:28.932Z,45.01
2018-05-21T09:03:28.866Z,44.82
2018-05-21T09:04:28.802Z,44.15
2018-05-21T09:05:28.747Z,44.43
2018-05-21T09:06:28.666Z,44.34
2018-05-21T09:07:28.605Z,44.34
2018-05-21T09:08:28.540Z,43.78
2018-05-21T09:09:28.474Z,43.13
2018-05-21T09:10:28.428Z,43.68
2018-05-21T09:11:28.344Z,43.13
2018-05-21T09:12:28.306Z,43.59
2018-05-21T09:13:28.220Z,42.74
2018-05-21T09:14:28.150Z,42.74
2018-05-21T09:15:28.088Z,42.18
2018-05-21T09:16:28.131Z,42.28
2018-05-21T09:17:27.958Z,41.04
2018-05-21T09:18:27.895Z,39.43
2018-05-21T09:19:27.831Z,39.72
2018-05-21T09:20:27.765Z,38.96
2018-05-21T09:21:27.707Z,39.06
2018-05-21T09:22:27.647Z,36.83
2018-05-21T09:23:27.580Z,36.97
2018-05-21T09:24:27.518Z,36.30
2018-05-21T09:25:27.459Z,35.51
2018-05-21T09:26:27.399Z,36.00
2018-05-21T09:27:27.366Z,35.94
2018-05-21T09:28:27.279Z,34.38
2018-05-21T09:29:27.220Z,35.69
2018-05-21T09:30:27.163Z,36.10
2018-05-21T09:31:27.187Z,35.05
2018-05-21T09:32:27.050Z,33.53
2018-05-21T09:33:26.985Z,33.15
2018-05-21T09:34:26.939Z,31.60
2018-05-21T09:35:26.867Z,32.17
2018-05-21T09:36:26.808Z,34.44
2018-05-21T09:37:26.771Z,35.71
2018-05-21T09:38:26.695Z,34.35
2018-05-21T09:39:26.637Z,34.44
2018-05-21T09:40:26.576Z,33.91
2018-05-21T09:41:26.527Z,33.43
2018-05-21T09:42:26.476Z,34.30
2018-05-21T09:43:26.409Z,34.01
2018-05-21T09:44:26.355Z,33.53
2018-05-21T09:45:26.294Z,33.15
2018-05-21T09:46:26.239Z,31.43
2018-05-21T09:47:26.186Z,30.77
2018-05-21T09:48:26.124Z,29.91
2018-05-21T09:49:26.066Z,30.72
2018-05-21T09:50:26.011Z,32.71
2018-05-21T09:51:25.956Z,33.78
2018-05-21T09:52:25.894Z,34.16
2018-05-21T09:53:25.845Z,35.28
2018-05-21T09:54:25.786Z,36.24
2018-05-21T09:55:25.729Z,37.59
2018-05-21T09:56:25.664Z,37.59
2018-05-21T09:57:25.606Z,37.79
2018-05-21T09:58:25.547Z,37.30
2018-05-21T09:59:25.491Z,36.43
2018-05-21T10:00:25.430Z,36.32
2018-05-21T10:01:25.368Z,36.43
2018-05-21T10:02:25.306Z,36.44
2018-05-21T10:03:25.267Z,35.48
2018-05-21T10:04:25.188Z,35.48
2018-05-21T10:05:25.127Z,36.06
2018-05-21T10:06:25.068Z,35.85
2018-05-21T10:07:25.006Z,36.06
2018-05-21T10:08:24.941Z,35.64
2018-05-21T10:09:24.899Z,35.93
2018-05-21T10:10:24.820Z,36.51
2018-05-21T10:11:24.769Z,36.99
2018-05-21T10:12:24.711Z,37.77
2018-05-21T10:13:24.639Z,37.11
2018-05-21T10:14:24.574Z,35.21
2018-05-21T10:15:24.515Z,34.66
2018-05-21T10:16:24.456Z,32.82
2018-05-21T10:17:24.385Z,32.84
2018-05-21T10:18:24.333Z,31.88
2018-05-21T10:19:24.277Z,30.38
2018-05-21T10:20:24.202Z,29.78
2018-05-21T10:21:24.151Z,29.13
2018-05-21T10:22:24.085Z,29.13
2018-05-21T10:23:24.022Z,29.21
2018-05-21T10:24:23.967Z,28.36
2018-05-21T10:25:23.903Z,29.11
2018-05-21T10:26:23.879Z,30.72
2018-05-21T10:27:23.786Z,30.82
2018-05-21T10:28:23.737Z,30.44
2018-05-21T10:29:23.674Z,29.85
2018-05-21T10:30:23.616Z,29.46
2018-05-21T10:31:23.553Z,29.49
2018-05-21T10:32:23.502Z,28.63
2018-05-21T10:33:23.445Z,27.58
2018-05-21T10:34:23.382Z,28.33
2018-05-21T10:35:23.339Z,28.25
2018-05-21T10:36:23.268Z,28.54
2018-05-21T10:37:23.330Z,27.36
2018-05-21T10:38:23.154Z,27.26
2018-05-21T10:39:23.093Z,27.53
2018-05-21T10:40:23.035Z,28.39
2018-05-21T10:41:22.982Z,29.61
2018-05-21T10:42:22.924Z,29.61
2018-05-21T10:43:22.906Z,29.51
2018-05-21T10:44:22.805Z,29.72
2018-05-21T10:45:22.748Z,29.74
2018-05-21T10:46:22.685Z,28.94
2018-05-21T10:47:22.637Z,29.22
2018-05-21T10:48:22.571Z,29.72
2018-05-21T10:49:22.508Z,29.82
2018-05-21T10:50:22.462Z,29.91
2018-05-21T10:51:22.412Z,28.75
2018-05-21T10:52:22.336Z,29.32
2018-05-21T10:53:22.281Z,29.79
2018-05-21T10:54:22.207Z,29.80
2018-05-21T10:55:22.153Z,29.12
2018-05-21T10:56:22.126Z,29.61
2018-05-21T10:57:22.027Z,29.02
2018-05-21T10:58:21.969Z,29.14
2018-05-21T10:59:21.909Z,29.04
2018-05-21T11:00:21.841Z,29.24
2018-05-21T11:01:21.783Z,29.91
2018-05-21T11:02:21.742Z,29.62
2018-05-21T11:03:21.659Z,28.94
2018-05-21T11:04:21.604Z,30.22
2018-05-21T11:05:21.533Z,29.82
2018-05-21T11:06:21.469Z,29.43
2018-05-21T11:07:21.413Z,28.85
2018-05-21T11:08:21.350Z,30.32
2018-05-21T11:09:21.289Z,30.11
2018-05-21T11:10:21.244Z,29.62
2018-05-21T11:11:21.162Z,30.08
2018-05-21T11:12:21.097Z,30.55
2018-05-21T11:13:21.044Z,30.84
2018-05-21T11:14:20.979Z,31.04
2018-05-21T11:15:20.912Z,31.21
2018-05-21T11:16:20.848Z,31.21
2018-05-21T11:17:20.791Z,30.82
2018-05-21T11:18:20.721Z,30.65
2018-05-21T11:19:20.663Z,30.27
2018-05-21T11:20:20.649Z,30.66
2018-05-21T11:21:20.541Z,29.71
2018-05-21T11:22:20.478Z,29.79
2018-05-21T11:23:20.410Z,31.05
2018-05-21T11:24:20.346Z,31.16
2018-05-21T11:25:20.281Z,31.16
2018-05-21T11:26:20.229Z,30.77
2018-05-21T11:27:20.157Z,30.68
2018-05-21T11:28:20.096Z,29.82
2018-05-21T11:29:20.033Z,30.11
2018-05-21T11:30:19.975Z,29.72
2018-05-21T11:31:19.908Z,30.85
2018-05-21T11:32:19.854Z,31.65
2018-05-21T11:33:19.779Z,31.57
2018-05-21T11:34:19.720Z,32.60
2018-05-21T11:35:19.666Z,31.82
2018-05-21T11:36:19.594Z,32.10
2018-05-21T11:37:19.541Z,32.78
2018-05-21T11:38:19.487Z,33.15
2018-05-21T11:39:19.416Z,33.07
2018-05-21T11:40:19.341Z,31.91
2018-05-21T11:41:19.288Z,31.71
2018-05-21T11:42:19.216Z,31.91
2018-05-21T11:43:19.161Z,32.39
2018-05-21T11:44:19.090Z,31.92
2018-05-21T11:45:19.034Z,31.92
2018-05-21T11:46:19.058Z,31.81
2018-05-21T11:47:18.905Z,32.87
2018-05-21T11:48:18.862Z,32.97
2018-05-21T11:49:18.775Z,33.07
2018-05-21T11:50:18.714Z,33.36
2018-05-21T11:51:18.669Z,32.39
2018-05-21T11:52:18.586Z,31.24
2018-05-21T11:53:18.533Z,31.60
2018-05-21T11:54:18.465Z,32.00
2018-05-21T11:55:18.415Z,32.50
2018-05-21T11:56:18.368Z,32.21
2018-05-21T11:57:18.312Z,31.84
2018-05-21T11:58:18.228Z,32.12
2018-05-21T11:59:18.159Z,31.81
2018-05-21T12:00:18.094Z,32.10
2018-05-21T12:01:18.026Z,31.73
2018-05-21T12:02:17.959Z,31.91
2018-05-21T12:03:17.887Z,31.71
2018-05-21T12:04:17.838Z,32.67
2018-05-21T12:05:17.764Z,33.25
2018-05-21T12:06:17.702Z,33.34
2018-05-21T12:07:17.642Z,33.26
2018-05-21T12:08:17.571Z,32.87
2018-05-21T12:09:17.505Z,32.20
2018-05-21T12:10:17.445Z,31.81
2018-05-21T12:11:17.381Z,31.53
2018-05-21T12:12:17.324Z,31.13
2018-05-21T12:13:17.268Z,32.12
2018-05-21T12:14:17.190Z,31.63
2018-05-21T12:15:17.130Z,32.31
2018-05-21T12:16:17.061Z,32.20
2018-05-21T12:17:16.996Z,32.49
2018-05-21T12:18:16.935Z,32.87
2018-05-21T12:19:16.867Z,32.59
2018-05-21T12:20:16.807Z,32.39
2018-05-21T12:21:16.753Z,33.15
2018-05-21T12:22:16.681Z,32.97
2018-05-21T12:23:16.616Z,32.20
2018-05-21T12:24:16.548Z,32.00
2018-05-21T12:25:16.492Z,32.00
2018-05-21T12:26:16.418Z,31.04
2018-05-21T12:27:16.355Z,30.85
2018-05-21T12:28:16.306Z,30.85
2018-05-21T12:29:16.225Z,31.23
2018-05-21T12:30:16.168Z,31.24
2018-05-21T12:31:16.181Z,30.74
2018-05-21T12:32:16.033Z,31.23
2018-05-21T12:33:15.968Z,31.42
2018-05-21T12:34:15.903Z,31.81
2018-05-21T12:35:15.841Z,31.52
2018-05-21T12:36:15.774Z,32.20
2018-05-21T12:37:15.709Z,31.81
2018-05-21T12:38:15.795Z,31.81
2018-05-21T12:39:15.583Z,32.20
2018-05-21T12:40:15.525Z,32.10
2018-05-21T12:41:15.454Z,32.31
2018-05-21T12:42:15.385Z,32.89
2018-05-21T12:43:15.321Z,31.34
2018-05-21T12:44:15.265Z,32.02
2018-05-21T12:45:15.203Z,32.02
2018-05-21T12:46:15.127Z,32.39
2018-05-21T12:47:15.064Z,33.07
2018-05-21T12:48:14.993Z,32.99
2018-05-21T12:49:14.937Z,32.70
2018-05-21T12:50:14.886Z,33.28
2018-05-21T12:51:14.803Z,32.89